Hood, Virginia
Current Conditions -  °F | °C
As of 4:53 PM on Thursday 23 Oct 2014 (Local Time) from KCHO Reporting Station
Clear Clear  
Wind Chill: 64°   Ceiling: Unl
Heat Index: 64°   Visibility: 10mi
Dew Point: 42°   Wind: 13mph
Humidity: 45%   Direction: 340°NNW
Pressure: 29.92"   Gusts: 21mph
Location:  38.35°N, 78.38°W
Report Text: KCHO 232053Z 34011G18KT 10SM CLR 18/06 A2992 RMK AO2 SLP127 T01780056 55001
Loading
Personal Weather Stations






























Interactive Weather Map
Tropical Storm Tracking
New forecast layout! Learn more

10-Day Weather Forecast

Advertisements
Track Severe Weather on mobile